AOS48 EGGP-EGNS
Flight info
| Callsign | AOS48 |
|---|---|
| Flight time | 0h 42m |
| Altitude | 10000 |
| Route | WAL M146 LUSOD DCT IOM |
| Aircraft | DA42/L-SBDGRY/S |
Departure
| Time | 2026-04-26 13:34 |
|---|---|
| Airport | Liverpool John Lennon Airport (EGGP) |
Arrival
| Time | 2026-04-26 14:17 |
|---|---|
| Airport | Isle of Man Airport (EGNS) |
| Time | Latitude | Longitude | Altitude | Speed | Heading |
|---|---|---|---|---|---|
| 2026-04-26 13:18 | 53.33705 | -2.83719 | 89 ft | 0 kts | 82° |
| 2026-04-26 13:19 | 53.33705 | -2.83720 | 89 ft | 0 kts | 82° |
| 2026-04-26 13:21 | 53.33668 | -2.83768 | 89 ft | 12 kts | 230° |
| 2026-04-26 13:21 | 53.33603 | -2.83797 | 89 ft | 10 kts | 188° |
| 2026-04-26 13:21 | 53.33579 | -2.83893 | 89 ft | 6 kts | 267° |
| 2026-04-26 13:22 | 53.33574 | -2.83999 | 89 ft | 12 kts | 265° |
| 2026-04-26 13:22 | 53.33562 | -2.84170 | 89 ft | 17 kts | 267° |
| 2026-04-26 13:22 | 53.33554 | -2.84394 | 89 ft | 20 kts | 266° |
| 2026-04-26 13:22 | 53.33543 | -2.84638 | 89 ft | 22 kts | 265° |
| 2026-04-26 13:23 | 53.33533 | -2.84898 | 89 ft | 23 kts | 265° |
| 2026-04-26 13:23 | 53.33521 | -2.85173 | 89 ft | 24 kts | 265° |
| 2026-04-26 13:23 | 53.33507 | -2.85457 | 89 ft | 25 kts | 265° |
| 2026-04-26 13:23 | 53.33496 | -2.85637 | 89 ft | 8 kts | 233° |
| 2026-04-26 13:24 | 53.33458 | -2.85654 | 89 ft | 5 kts | 140° |
| 2026-04-26 13:24 | 53.33450 | -2.85632 | 90 ft | 0 kts | 114° |
| 2026-04-26 13:27 | 53.33450 | -2.85633 | 90 ft | 0 kts | 114° |
| 2026-04-26 13:31 | 53.33450 | -2.85634 | 90 ft | 0 kts | 114° |
| 2026-04-26 13:31 | 53.33448 | -2.85625 | 90 ft | 4 kts | 117° |
| 2026-04-26 13:31 | 53.33412 | -2.85487 | 89 ft | 19 kts | 114° |
| 2026-04-26 13:32 | 53.33355 | -2.85291 | 90 ft | 17 kts | 112° |
| 2026-04-26 13:32 | 53.33354 | -2.85142 | 90 ft | 5 kts | 89° |
| 2026-04-26 13:32 | 53.33354 | -2.85140 | 90 ft | 0 kts | 88° |
| 2026-04-26 13:32 | 53.33354 | -2.85141 | 90 ft | 0 kts | 88° |
| 2026-04-26 13:33 | 53.33357 | -2.85053 | 89 ft | 26 kts | 84° |
| 2026-04-26 13:33 | 53.33388 | -2.84398 | 89 ft | 79 kts | 85° |
| 2026-04-26 13:34 | 53.33464 | -2.83464 | 321 ft | 82 kts | 89° |
| 2026-04-26 13:34 | 53.33563 | -2.82523 | 647 ft | 81 kts | 85° |
| 2026-04-26 13:34 | 53.33675 | -2.81558 | 944 ft | 86 kts | 86° |
| 2026-04-26 13:34 | 53.33748 | -2.80905 | 1117 ft | 89 kts | 87° |
| 2026-04-26 13:35 | 53.33975 | -2.79475 | 1448 ft | 100 kts | 70° |
| 2026-04-26 13:35 | 53.34479 | -2.78638 | 1767 ft | 107 kts | 22° |
| 2026-04-26 13:35 | 53.35211 | -2.78490 | 2174 ft | 108 kts | 355° |
| 2026-04-26 13:35 | 53.35967 | -2.78572 | 2534 ft | 109 kts | 348° |
| 2026-04-26 13:36 | 53.36717 | -2.78848 | 2808 ft | 110 kts | 332° |
| 2026-04-26 13:36 | 53.37376 | -2.79474 | 3051 ft | 109 kts | 313° |
| 2026-04-26 13:36 | 53.37777 | -2.80521 | 3375 ft | 108 kts | 278° |
| 2026-04-26 13:36 | 53.37894 | -2.81739 | 3769 ft | 106 kts | 273° |
| 2026-04-26 13:37 | 53.37946 | -2.82997 | 3980 ft | 109 kts | 270° |
| 2026-04-26 13:37 | 53.37953 | -2.84270 | 4279 ft | 109 kts | 266° |
| 2026-04-26 13:37 | 53.37970 | -2.85520 | 4532 ft | 109 kts | 270° |
| 2026-04-26 13:37 | 53.38021 | -2.86795 | 4821 ft | 110 kts | 269° |
| 2026-04-26 13:38 | 53.38102 | -2.88074 | 5068 ft | 112 kts | 272° |
| 2026-04-26 13:38 | 53.38183 | -2.89369 | 5381 ft | 112 kts | 272° |
| 2026-04-26 13:38 | 53.38252 | -2.90649 | 5744 ft | 108 kts | 269° |
| 2026-04-26 13:38 | 53.38306 | -2.91895 | 6064 ft | 108 kts | 270° |
| 2026-04-26 13:39 | 53.38431 | -2.93159 | 6339 ft | 111 kts | 274° |
| 2026-04-26 13:39 | 53.38537 | -2.94421 | 6645 ft | 108 kts | 270° |
| 2026-04-26 13:39 | 53.38611 | -2.95684 | 6881 ft | 110 kts | 269° |
| 2026-04-26 13:39 | 53.38680 | -2.96952 | 7158 ft | 109 kts | 268° |
| 2026-04-26 13:40 | 53.38743 | -2.98216 | 7466 ft | 109 kts | 268° |
| 2026-04-26 13:40 | 53.38801 | -2.99486 | 7757 ft | 110 kts | 270° |
| 2026-04-26 13:40 | 53.38855 | -3.00765 | 8021 ft | 110 kts | 269° |
| 2026-04-26 13:40 | 53.38967 | -3.02093 | 8100 ft | 132 kts | 289° |
| 2026-04-26 13:41 | 53.39535 | -3.03404 | 8192 ft | 142 kts | 306° |
| 2026-04-26 13:41 | 53.40178 | -3.04679 | 8310 ft | 144 kts | 304° |
| 2026-04-26 13:41 | 53.40799 | -3.06011 | 8450 ft | 146 kts | 302° |
| 2026-04-26 13:41 | 53.41407 | -3.07386 | 8573 ft | 147 kts | 301° |
| 2026-04-26 13:42 | 53.42010 | -3.08769 | 8706 ft | 147 kts | 300° |
| 2026-04-26 13:42 | 53.42617 | -3.10169 | 8837 ft | 149 kts | 301° |
| 2026-04-26 13:42 | 53.43226 | -3.11577 | 8964 ft | 149 kts | 301° |
| 2026-04-26 13:42 | 53.43836 | -3.12984 | 9085 ft | 149 kts | 301° |
| 2026-04-26 13:43 | 53.44444 | -3.14387 | 9212 ft | 149 kts | 301° |
| 2026-04-26 13:43 | 53.45051 | -3.15790 | 9342 ft | 148 kts | 301° |
| 2026-04-26 13:43 | 53.45657 | -3.17191 | 9474 ft | 148 kts | 301° |
| 2026-04-26 13:43 | 53.46263 | -3.18593 | 9605 ft | 148 kts | 300° |
| 2026-04-26 13:44 | 53.46869 | -3.19996 | 9737 ft | 148 kts | 300° |
| 2026-04-26 13:44 | 53.47474 | -3.21396 | 9869 ft | 148 kts | 300° |
| 2026-04-26 13:44 | 53.48078 | -3.22797 | 10002 ft | 148 kts | 300° |
| 2026-04-26 13:44 | 53.48682 | -3.24196 | 10134 ft | 148 kts | 300° |
| 2026-04-26 13:45 | 53.49286 | -3.25599 | 10260 ft | 148 kts | 300° |
| 2026-04-26 13:45 | 53.49903 | -3.27033 | 10275 ft | 155 kts | 300° |
| 2026-04-26 13:45 | 53.50546 | -3.28524 | 10273 ft | 159 kts | 301° |
| 2026-04-26 13:45 | 53.51202 | -3.30046 | 10274 ft | 162 kts | 301° |
| 2026-04-26 13:46 | 53.51865 | -3.31588 | 10274 ft | 163 kts | 301° |
| 2026-04-26 13:46 | 53.52533 | -3.33142 | 10274 ft | 164 kts | 301° |
| 2026-04-26 13:46 | 53.53203 | -3.34700 | 10274 ft | 165 kts | 301° |
| 2026-04-26 13:46 | 53.53874 | -3.36265 | 10274 ft | 165 kts | 301° |
| 2026-04-26 13:47 | 53.54538 | -3.37812 | 10274 ft | 165 kts | 301° |
| 2026-04-26 13:47 | 53.55210 | -3.39379 | 10274 ft | 165 kts | 301° |
| 2026-04-26 13:47 | 53.55883 | -3.40950 | 10274 ft | 165 kts | 301° |
| 2026-04-26 13:47 | 53.56555 | -3.42519 | 10274 ft | 165 kts | 301° |
| 2026-04-26 13:48 | 53.57228 | -3.44092 | 10275 ft | 166 kts | 301° |
| 2026-04-26 13:48 | 53.57901 | -3.45665 | 10275 ft | 166 kts | 301° |
| 2026-04-26 13:48 | 53.58575 | -3.47242 | 10275 ft | 166 kts | 301° |
| 2026-04-26 13:48 | 53.59248 | -3.48819 | 10275 ft | 166 kts | 301° |
| 2026-04-26 13:49 | 53.59921 | -3.50395 | 10275 ft | 166 kts | 301° |
| 2026-04-26 13:49 | 53.60595 | -3.51973 | 10275 ft | 166 kts | 300° |
| 2026-04-26 13:49 | 53.61267 | -3.53551 | 10277 ft | 166 kts | 300° |
| 2026-04-26 13:49 | 53.61938 | -3.55126 | 10277 ft | 166 kts | 300° |
| 2026-04-26 13:50 | 53.62610 | -3.56703 | 10275 ft | 165 kts | 301° |
| 2026-04-26 13:50 | 53.63280 | -3.58276 | 10275 ft | 165 kts | 301° |
| 2026-04-26 13:50 | 53.63946 | -3.59844 | 10276 ft | 164 kts | 300° |
| 2026-04-26 13:50 | 53.64609 | -3.61403 | 10276 ft | 163 kts | 300° |
| 2026-04-26 13:51 | 53.65269 | -3.62960 | 10279 ft | 163 kts | 300° |
| 2026-04-26 13:51 | 53.65923 | -3.64522 | 10285 ft | 163 kts | 299° |
| 2026-04-26 13:51 | 53.66576 | -3.66087 | 10285 ft | 163 kts | 299° |
| 2026-04-26 13:51 | 53.67230 | -3.67651 | 10285 ft | 163 kts | 299° |
| 2026-04-26 13:52 | 53.67885 | -3.69218 | 10285 ft | 163 kts | 299° |
| 2026-04-26 13:52 | 53.68540 | -3.70784 | 10290 ft | 164 kts | 299° |
| 2026-04-26 13:52 | 53.69197 | -3.72355 | 10288 ft | 164 kts | 298° |
| 2026-04-26 13:52 | 53.69851 | -3.73922 | 10288 ft | 163 kts | 298° |
| 2026-04-26 13:53 | 53.70503 | -3.75487 | 10286 ft | 163 kts | 298° |
| 2026-04-26 13:53 | 53.71156 | -3.77051 | 10286 ft | 163 kts | 298° |
| 2026-04-26 13:53 | 53.71807 | -3.78616 | 10286 ft | 163 kts | 298° |
| 2026-04-26 13:53 | 53.72459 | -3.80181 | 10286 ft | 163 kts | 298° |
| 2026-04-26 13:54 | 53.73109 | -3.81743 | 10285 ft | 163 kts | 298° |
| 2026-04-26 13:54 | 53.73760 | -3.83307 | 10285 ft | 163 kts | 298° |
| 2026-04-26 13:54 | 53.74409 | -3.84870 | 10286 ft | 163 kts | 298° |
| 2026-04-26 13:55 | 53.75708 | -3.87998 | 10286 ft | 163 kts | 298° |
| 2026-04-26 13:55 | 53.76137 | -3.89033 | 10286 ft | 163 kts | 298° |
| 2026-04-26 13:55 | 53.77654 | -3.92692 | 10285 ft | 162 kts | 298° |
| 2026-04-26 13:56 | 53.78083 | -3.93729 | 10285 ft | 162 kts | 298° |
| 2026-04-26 13:56 | 53.78949 | -3.95822 | 10285 ft | 162 kts | 298° |
| 2026-04-26 13:56 | 53.79589 | -3.97368 | 10286 ft | 163 kts | 298° |
| 2026-04-26 13:56 | 53.80236 | -3.98934 | 10286 ft | 163 kts | 298° |
| 2026-04-26 13:57 | 53.80884 | -4.00503 | 10286 ft | 163 kts | 298° |
| 2026-04-26 13:57 | 53.81532 | -4.02072 | 10286 ft | 163 kts | 298° |
| 2026-04-26 13:57 | 53.82179 | -4.03642 | 10286 ft | 163 kts | 298° |
| 2026-04-26 13:57 | 53.82826 | -4.05211 | 10286 ft | 163 kts | 298° |
| 2026-04-26 13:58 | 53.83474 | -4.06782 | 10286 ft | 163 kts | 298° |
| 2026-04-26 13:58 | 53.84121 | -4.08354 | 10286 ft | 163 kts | 298° |
| 2026-04-26 13:58 | 53.84781 | -4.09960 | 10152 ft | 170 kts | 298° |
| 2026-04-26 13:58 | 53.85465 | -4.11621 | 9984 ft | 174 kts | 298° |
| 2026-04-26 13:59 | 53.86164 | -4.13321 | 9797 ft | 177 kts | 299° |
| 2026-04-26 13:59 | 53.86871 | -4.15041 | 9611 ft | 179 kts | 299° |
| 2026-04-26 13:59 | 53.87582 | -4.16774 | 9426 ft | 179 kts | 299° |
| 2026-04-26 14:00 | 53.89717 | -4.21989 | 8895 ft | 180 kts | 299° |
| 2026-04-26 14:00 | 53.90430 | -4.23734 | 8702 ft | 180 kts | 299° |
| 2026-04-26 14:00 | 53.90903 | -4.24890 | 8590 ft | 180 kts | 299° |
| 2026-04-26 14:01 | 53.91854 | -4.27218 | 8353 ft | 179 kts | 299° |
| 2026-04-26 14:01 | 53.92562 | -4.28952 | 8182 ft | 178 kts | 299° |
| 2026-04-26 14:01 | 53.93266 | -4.30680 | 8006 ft | 178 kts | 299° |
| 2026-04-26 14:01 | 53.93956 | -4.32407 | 7830 ft | 176 kts | 295° |
| 2026-04-26 14:02 | 53.94508 | -4.34241 | 7656 ft | 174 kts | 291° |
| 2026-04-26 14:02 | 53.95036 | -4.36053 | 7485 ft | 173 kts | 291° |
| 2026-04-26 14:02 | 53.95568 | -4.37884 | 7313 ft | 173 kts | 291° |
| 2026-04-26 14:02 | 53.96099 | -4.39708 | 7138 ft | 172 kts | 291° |
| 2026-04-26 14:03 | 53.96630 | -4.41529 | 6972 ft | 172 kts | 291° |
| 2026-04-26 14:03 | 53.97158 | -4.43342 | 6804 ft | 171 kts | 291° |
| 2026-04-26 14:03 | 53.97685 | -4.45152 | 6621 ft | 171 kts | 291° |
| 2026-04-26 14:03 | 53.98278 | -4.46897 | 6439 ft | 174 kts | 306° |
| 2026-04-26 14:04 | 53.99164 | -4.48330 | 6208 ft | 178 kts | 314° |
| 2026-04-26 14:04 | 54.00107 | -4.49725 | 5926 ft | 181 kts | 314° |
| 2026-04-26 14:04 | 54.01044 | -4.51160 | 5646 ft | 181 kts | 313° |
| 2026-04-26 14:04 | 54.01973 | -4.52615 | 5369 ft | 182 kts | 313° |
| 2026-04-26 14:05 | 54.02899 | -4.54074 | 5091 ft | 182 kts | 313° |
| 2026-04-26 14:05 | 54.03826 | -4.55535 | 4809 ft | 182 kts | 314° |
| 2026-04-26 14:05 | 54.04748 | -4.56984 | 4526 ft | 177 kts | 314° |
| 2026-04-26 14:05 | 54.05621 | -4.58356 | 4248 ft | 166 kts | 313° |
| 2026-04-26 14:06 | 54.06449 | -4.59663 | 3969 ft | 160 kts | 313° |
| 2026-04-26 14:06 | 54.07220 | -4.60984 | 3688 ft | 155 kts | 303° |
| 2026-04-26 14:06 | 54.07665 | -4.62599 | 3415 ft | 149 kts | 279° |
| 2026-04-26 14:06 | 54.07693 | -4.64331 | 3139 ft | 145 kts | 257° |
| 2026-04-26 14:07 | 54.07411 | -4.65961 | 2868 ft | 143 kts | 249° |
| 2026-04-26 14:07 | 54.07208 | -4.67022 | 2748 ft | 139 kts | 249° |
| 2026-04-26 14:07 | 54.06916 | -4.68543 | 2612 ft | 132 kts | 249° |
| 2026-04-26 14:07 | 54.06638 | -4.69988 | 2462 ft | 125 kts | 249° |
| 2026-04-26 14:08 | 54.06375 | -4.71355 | 2333 ft | 119 kts | 249° |
| 2026-04-26 14:08 | 54.06122 | -4.72674 | 2204 ft | 116 kts | 249° |
| 2026-04-26 14:08 | 54.05866 | -4.74001 | 2078 ft | 121 kts | 249° |
| 2026-04-26 14:08 | 54.05602 | -4.75377 | 1980 ft | 122 kts | 250° |
| 2026-04-26 14:09 | 54.05345 | -4.76723 | 1982 ft | 118 kts | 251° |
| 2026-04-26 14:09 | 54.05093 | -4.78033 | 1980 ft | 115 kts | 250° |
| 2026-04-26 14:09 | 54.04846 | -4.79318 | 1972 ft | 113 kts | 251° |
| 2026-04-26 14:09 | 54.04603 | -4.80585 | 1972 ft | 112 kts | 250° |
| 2026-04-26 14:10 | 54.04339 | -4.81836 | 1971 ft | 113 kts | 239° |
| 2026-04-26 14:10 | 54.03989 | -4.83023 | 1976 ft | 113 kts | 255° |
| 2026-04-26 14:10 | 54.03837 | -4.84330 | 1974 ft | 112 kts | 258° |
| 2026-04-26 14:10 | 54.03710 | -4.85621 | 2021 ft | 109 kts | 267° |
| 2026-04-26 14:11 | 54.04663 | -4.87500 | 1998 ft | 120 kts | 346° |
| 2026-04-26 14:11 | 54.05484 | -4.87392 | 2039 ft | 121 kts | 17° |
| 2026-04-26 14:11 | 54.06179 | -4.86583 | 2032 ft | 122 kts | 51° |
| 2026-04-26 14:12 | 54.06516 | -4.85266 | 1977 ft | 123 kts | 80° |
| 2026-04-26 14:12 | 54.06598 | -4.83825 | 1949 ft | 121 kts | 91° |
| 2026-04-26 14:12 | 54.06611 | -4.82389 | 1916 ft | 122 kts | 90° |
| 2026-04-26 14:12 | 54.06726 | -4.80988 | 1922 ft | 119 kts | 83° |
| 2026-04-26 14:13 | 54.06922 | -4.78191 | 1894 ft | 118 kts | 88° |
| 2026-04-26 14:13 | 54.06959 | -4.76785 | 1913 ft | 123 kts | 88° |
| 2026-04-26 14:13 | 54.07071 | -4.75322 | 1778 ft | 121 kts | 82° |
| 2026-04-26 14:14 | 54.07249 | -4.74026 | 1642 ft | 97 kts | 79° |
| 2026-04-26 14:14 | 54.07387 | -4.72961 | 1478 ft | 93 kts | 84° |
| 2026-04-26 14:14 | 54.07466 | -4.71896 | 1287 ft | 91 kts | 88° |
| 2026-04-26 14:14 | 54.07520 | -4.70833 | 1149 ft | 89 kts | 86° |
| 2026-04-26 14:15 | 54.07604 | -4.69783 | 990 ft | 90 kts | 83° |
| 2026-04-26 14:15 | 54.07699 | -4.68744 | 852 ft | 87 kts | 84° |
| 2026-04-26 14:15 | 54.07780 | -4.67738 | 716 ft | 83 kts | 84° |
| 2026-04-26 14:15 | 54.07851 | -4.66774 | 570 ft | 81 kts | 83° |
| 2026-04-26 14:16 | 54.07921 | -4.65839 | 409 ft | 79 kts | 83° |
| 2026-04-26 14:16 | 54.08008 | -4.64943 | 270 ft | 75 kts | 79° |
| 2026-04-26 14:16 | 54.08116 | -4.64074 | 150 ft | 74 kts | 79° |
| 2026-04-26 14:16 | 54.08222 | -4.63231 | 42 ft | 68 kts | 79° |
| 2026-04-26 14:17 | 54.08348 | -4.62657 | 32 ft | 40 kts | 31° |
| 2026-04-26 14:17 | 54.08543 | -4.62480 | 37 ft | 18 kts | 27° |
| 2026-04-26 14:17 | 54.08605 | -4.62565 | 38 ft | 17 kts | 280° |
| 2026-04-26 14:17 | 54.08620 | -4.62791 | 36 ft | 21 kts | 277° |
| 2026-04-26 14:18 | 54.08634 | -4.62993 | 35 ft | 11 kts | 267° |
| 2026-04-26 14:18 | 54.08631 | -4.63139 | 34 ft | 12 kts | 319° |
| 2026-04-26 14:18 | 54.08685 | -4.63177 | 35 ft | 9 kts | 43° |
| 2026-04-26 14:18 | 54.08736 | -4.63187 | 36 ft | 4 kts | 302° |
| 2026-04-26 14:19 | 54.08721 | -4.63220 | 35 ft | 0 kts | 223° |
| 2026-04-26 14:19 | 54.08721 | -4.63219 | 35 ft | 0 kts | 223° |